createdAt,value
2023-05-06T00:01:25.771Z,46.57
2023-05-06T00:03:58.006Z,45.26
2023-05-06T00:06:30.422Z,48.01
2023-05-06T00:09:02.664Z,50.60
2023-05-06T00:11:34.927Z,52.79
2023-05-06T00:14:09.750Z,51.61
2023-05-06T00:16:42.127Z,53.00
2023-05-06T00:19:14.350Z,55.27
2023-05-06T00:21:46.482Z,52.66
2023-05-06T00:24:18.680Z,56.49
2023-05-06T00:26:51.010Z,65.26
2023-05-06T00:29:25.996Z,64.73
2023-05-06T00:31:58.195Z,72.89
2023-05-06T00:34:30.444Z,76.15
2023-05-06T00:37:02.764Z,73.44
2023-05-06T00:39:35.176Z,78.18
2023-05-06T00:42:07.548Z,77.36
2023-05-06T00:44:42.347Z,76.36
2023-05-06T00:47:14.655Z,76.16
2023-05-06T00:49:47.331Z,86.36
2023-05-06T00:52:21.443Z,82.16
2023-05-06T00:54:54.263Z,85.97
2023-05-06T00:57:26.779Z,78.07
2023-05-06T01:00:01.725Z,79.29
2023-05-06T01:02:46.573Z,80.00
2023-05-06T01:05:22.457Z,80.83
2023-05-06T01:08:04.474Z,80.54
2023-05-06T01:10:42.806Z,88.89
2023-05-06T01:13:25.103Z,88.96
2023-05-06T01:16:03.218Z,91.97
2023-05-06T01:18:36.995Z,91.02
2023-05-06T01:21:10.430Z,83.33
2023-05-06T01:24:00.192Z,89.69
2023-05-06T01:26:32.534Z,88.95
2023-05-06T01:29:05.307Z,89.17
2023-05-06T01:31:47.579Z,89.09
2023-05-06T01:34:31.488Z,80.49
2023-05-06T01:37:14.891Z,82.88
2023-05-06T01:39:51.897Z,86.16
2023-05-06T01:42:28.369Z,87.56
2023-05-06T01:45:04.044Z,83.68
2023-05-06T01:47:37.333Z,88.27
2023-05-06T01:50:10.658Z,87.13
2023-05-06T01:52:43.187Z,79.66
2023-05-06T01:55:18.253Z,81.61
2023-05-06T01:57:50.513Z,75.26
2023-05-06T02:00:24.907Z,64.52
2023-05-06T02:02:57.170Z,63.69
2023-05-06T02:05:29.750Z,59.01
2023-05-06T02:08:01.968Z,53.99
2023-05-06T02:10:36.756Z,59.80
2023-05-06T02:13:09.079Z,58.80
2023-05-06T02:15:41.559Z,56.82
2023-05-06T02:18:14.104Z,59.48
2023-05-06T02:20:46.224Z,59.22
2023-05-06T02:23:18.397Z,66.69
2023-05-06T02:25:53.429Z,69.45
2023-05-06T02:28:25.564Z,65.86
2023-05-06T02:31:02.951Z,66.18
2023-05-06T02:33:35.180Z,64.64
2023-05-06T02:36:07.759Z,64.58
2023-05-06T02:38:39.954Z,62.81
2023-05-06T02:41:14.712Z,65.81
2023-05-06T02:43:46.876Z,63.36
2023-05-06T02:46:19.137Z,63.58
2023-05-06T02:48:51.379Z,63.69
2023-05-06T02:51:23.529Z,64.86
2023-05-06T02:53:55.787Z,68.03
2023-05-06T02:56:31.400Z,64.01
2023-05-06T02:59:03.621Z,66.52
2023-05-06T03:01:35.939Z,65.48
2023-05-06T03:04:08.273Z,59.94
2023-05-06T03:06:40.848Z,57.50
2023-05-06T03:09:13.062Z,53.95
2023-05-06T03:11:47.897Z,57.21
2023-05-06T03:14:20.145Z,57.40
2023-05-06T03:16:52.639Z,61.29
2023-05-06T03:19:25.036Z,61.25
2023-05-06T03:21:57.872Z,59.97
2023-05-06T03:24:30.779Z,60.61
2023-05-06T03:27:05.575Z,59.69
2023-05-06T03:29:37.743Z,62.26
2023-05-06T03:32:10.726Z,68.26
2023-05-06T03:34:42.987Z,74.91
2023-05-06T03:37:15.320Z,85.20
2023-05-06T03:39:47.616Z,92.76
2023-05-06T03:42:22.452Z,88.84
2023-05-06T03:44:54.668Z,88.84
2023-05-06T03:47:26.911Z,86.70
2023-05-06T03:49:59.100Z,86.31
2023-05-06T03:52:31.487Z,81.69
2023-05-06T03:55:03.856Z,87.43
2023-05-06T03:57:38.860Z,83.82
2023-05-06T04:00:12.479Z,86.37
2023-05-06T04:02:44.817Z,82.56
2023-05-06T04:05:17.298Z,79.09
2023-05-06T04:07:49.463Z,81.10
2023-05-06T04:10:21.878Z,85.96
2023-05-06T04:12:56.703Z,83.45
2023-05-06T04:15:32.131Z,83.11
2023-05-06T04:18:04.386Z,85.36
2023-05-06T04:20:36.665Z,86.40
2023-05-06T04:23:08.868Z,88.76
2023-05-06T04:25:42.776Z,91.16
2023-05-06T04:28:18.733Z,86.42
2023-05-06T04:30:51.809Z,88.94
2023-05-06T04:33:26.373Z,89.16
2023-05-06T04:35:59.368Z,100.36
2023-05-06T04:38:32.398Z,103.76
2023-05-06T04:41:05.200Z,104.19
2023-05-06T04:43:39.977Z,101.89
2023-05-06T04:46:12.510Z,101.23
2023-05-06T04:48:45.235Z,101.24
2023-05-06T04:51:17.452Z,101.05
2023-05-06T04:53:49.686Z,103.56
2023-05-06T04:56:22.792Z,101.74
2023-05-06T04:58:57.692Z,104.16
2023-05-06T05:01:30.011Z,108.24
2023-05-06T05:04:02.283Z,111.34
2023-05-06T05:06:34.803Z,108.68
2023-05-06T05:09:07.214Z,106.19
2023-05-06T05:11:41.931Z,105.23
2023-05-06T05:14:16.732Z,107.36
2023-05-06T05:16:49.149Z,104.19
2023-05-06T05:19:21.449Z,106.91
2023-05-06T05:21:53.802Z,106.59
2023-05-06T05:24:26.194Z,106.87
2023-05-06T05:26:58.664Z,113.70
2023-05-06T05:29:33.498Z,116.09
2023-05-06T05:32:05.680Z,113.86
2023-05-06T05:34:38.075Z,115.28
2023-05-06T05:37:11.538Z,120.26
2023-05-06T05:39:43.798Z,120.76
2023-05-06T05:42:16.240Z,120.95
2023-05-06T05:44:51.047Z,120.51
2023-05-06T05:47:23.375Z,119.81
2023-05-06T05:49:57.164Z,127.66
2023-05-06T05:52:29.467Z,151.25
2023-05-06T05:55:02.834Z,142.64
2023-05-06T05:57:35.063Z,141.72
2023-05-06T06:00:13.473Z,150.19
2023-05-06T06:02:46.217Z,151.84
2023-05-06T06:05:18.774Z,169.99
2023-05-06T06:07:52.159Z,169.72
2023-05-06T06:10:24.626Z,167.31
2023-05-06T06:12:56.943Z,162.76
2023-05-06T06:15:32.640Z,166.42
2023-05-06T06:18:05.501Z,167.51
2023-05-06T06:20:37.946Z,171.91
2023-05-06T06:23:10.286Z,180.31
2023-05-06T06:25:42.670Z,179.19
2023-05-06T06:28:14.928Z,172.81
2023-05-06T06:30:49.840Z,162.81
2023-05-06T06:33:22.173Z,162.15
2023-05-06T06:35:54.931Z,161.76
2023-05-06T06:38:27.157Z,161.46
2023-05-06T06:40:59.383Z,159.96
2023-05-06T06:43:31.593Z,161.42
2023-05-06T06:46:06.604Z,173.71
2023-05-06T06:48:38.837Z,181.19
2023-05-06T06:51:11.207Z,215.87
2023-05-06T06:53:43.456Z,288.69
2023-05-06T06:56:16.430Z,236.21
2023-05-06T06:58:48.991Z,216.21
2023-05-06T07:01:24.417Z,191.34
2023-05-06T07:03:56.735Z,180.96
2023-05-06T07:06:29.191Z,190.31
2023-05-06T07:09:01.427Z,184.90
2023-05-06T07:11:33.783Z,180.01
2023-05-06T07:14:05.967Z,178.92
2023-05-06T07:16:41.862Z,178.51
2023-05-06T07:19:14.768Z,174.14
2023-05-06T07:21:47.018Z,181.12
2023-05-06T07:24:19.324Z,179.24
2023-05-06T07:26:52.264Z,176.76
2023-05-06T07:29:24.480Z,178.79
2023-05-06T07:31:59.383Z,181.96
2023-05-06T07:34:31.649Z,176.71
2023-05-06T07:37:04.711Z,177.03
2023-05-06T07:39:36.960Z,183.28
2023-05-06T07:42:13.200Z,188.40
2023-05-06T07:44:45.487Z,184.71
2023-05-06T07:47:29.954Z,191.50
2023-05-06T07:50:02.980Z,189.67
2023-05-06T07:52:35.750Z,191.54
2023-05-06T07:55:09.908Z,187.49
2023-05-06T07:57:42.589Z,187.34
2023-05-06T08:00:15.972Z,183.04
2023-05-06T08:02:50.908Z,192.51
2023-05-06T08:05:23.546Z,188.31
2023-05-06T08:07:55.924Z,186.66
2023-05-06T08:10:28.392Z,188.74
2023-05-06T08:13:00.630Z,190.19
2023-05-06T08:15:33.300Z,184.14
2023-05-06T08:18:20.897Z,180.04
2023-05-06T08:20:54.322Z,174.22
2023-05-06T08:23:26.641Z,182.19
2023-05-06T08:25:59.272Z,178.51
2023-05-06T08:28:32.126Z,184.91
2023-05-06T08:31:04.362Z,183.29
2023-05-06T08:33:39.196Z,190.06
2023-05-06T08:36:12.288Z,193.47
2023-05-06T08:38:49.153Z,191.26
2023-05-06T08:41:24.119Z,188.50
2023-05-06T08:44:01.337Z,185.05
2023-05-06T08:46:33.850Z,185.76
2023-05-06T08:49:08.748Z,181.36
2023-05-06T08:51:43.602Z,182.11
2023-05-06T08:54:17.115Z,183.99
2023-05-06T08:56:56.471Z,181.81
2023-05-06T08:59:33.082Z,177.87
2023-05-06T09:02:05.576Z,184.79
2023-05-06T09:04:41.729Z,181.79
2023-05-06T09:07:13.929Z,192.92
2023-05-06T09:09:46.165Z,213.06
2023-05-06T09:12:18.746Z,229.68
2023-05-06T09:14:56.109Z,246.30
2023-05-06T09:17:28.661Z,292.79
2023-05-06T09:20:04.056Z,269.36
2023-05-06T09:22:37.052Z,244.34
2023-05-06T09:25:12.199Z,230.41
2023-05-06T09:27:44.914Z,206.29
2023-05-06T09:30:18.290Z,181.28
2023-05-06T09:32:51.733Z,170.14
2023-05-06T09:35:31.858Z,160.29
2023-05-06T09:38:06.494Z,155.58
2023-05-06T09:40:40.063Z,165.05
2023-05-06T09:43:12.766Z,168.99
2023-05-06T09:45:46.507Z,182.08
2023-05-06T09:48:19.714Z,187.16
2023-05-06T09:50:54.867Z,181.66
2023-05-06T09:53:29.114Z,175.66
2023-05-06T09:56:01.777Z,177.94
2023-05-06T09:58:36.323Z,178.76
2023-05-06T10:01:12.070Z,180.90
2023-05-06T10:03:46.463Z,173.34
2023-05-06T10:06:23.241Z,173.83
2023-05-06T10:08:56.624Z,175.75
2023-05-06T10:11:30.180Z,175.98
2023-05-06T10:14:05.302Z,169.73
2023-05-06T10:16:40.335Z,151.50
2023-05-06T10:19:13.347Z,133.04
2023-05-06T10:21:58.112Z,134.62
2023-05-06T10:24:37.592Z,138.46
2023-05-06T10:27:11.132Z,148.68
2023-05-06T10:29:43.787Z,152.98
2023-05-06T10:32:16.517Z,146.08
2023-05-06T10:34:58.312Z,134.76
2023-05-06T10:37:37.235Z,133.80
2023-05-06T10:40:12.780Z,131.09
2023-05-06T10:42:45.276Z,110.64
2023-05-06T10:45:18.200Z,90.39
2023-05-06T10:48:12.868Z,91.06
2023-05-06T10:50:46.887Z,90.66
2023-05-06T10:53:21.752Z,94.01
2023-05-06T10:56:11.924Z,94.34
2023-05-06T10:58:44.114Z,88.31
2023-05-06T11:01:19.102Z,80.71
2023-05-06T11:03:51.499Z,75.69
2023-05-06T11:06:39.613Z,73.65
2023-05-06T11:09:21.922Z,69.72
2023-05-06T11:11:57.402Z,65.42
2023-05-06T11:14:35.602Z,60.53
2023-05-06T11:17:09.857Z,73.61
2023-05-06T11:19:43.608Z,74.62
2023-05-06T11:22:42.672Z,73.41
2023-05-06T11:25:17.920Z,77.06
2023-05-06T11:27:50.934Z,82.33
2023-05-06T11:30:23.253Z,80.64
2023-05-06T11:33:05.391Z,80.00
2023-05-06T11:35:41.810Z,76.95
2023-05-06T11:38:14.067Z,68.25
2023-05-06T11:40:48.857Z,78.50
2023-05-06T11:43:21.964Z,79.75
2023-05-06T11:45:54.427Z,80.37
2023-05-06T11:48:26.690Z,97.66
2023-05-06T11:50:59.545Z,108.71
2023-05-06T11:53:33.728Z,83.74
2023-05-06T11:56:11.122Z,65.79
2023-05-06T11:58:43.279Z,57.40
2023-05-06T12:01:15.498Z,64.96
2023-05-06T12:03:47.891Z,80.86
2023-05-06T12:06:24.097Z,85.49
2023-05-06T12:08:57.048Z,82.84
2023-05-06T12:11:32.388Z,83.54
2023-05-06T12:14:05.795Z,87.39
2023-05-06T12:16:39.366Z,83.04
2023-05-06T12:19:11.814Z,73.03
2023-05-06T12:21:44.140Z,66.31
2023-05-06T12:24:16.806Z,64.85
2023-05-06T12:26:53.336Z,69.10
2023-05-06T12:29:25.897Z,58.41
2023-05-06T12:32:12.739Z,63.09
2023-05-06T12:34:46.045Z,66.14
2023-05-06T12:37:32.005Z,70.46
2023-05-06T12:40:04.335Z,86.42
2023-05-06T12:42:39.441Z,104.91
2023-05-06T12:45:18.673Z,118.16
2023-05-06T12:47:57.860Z,115.14
2023-05-06T12:50:38.135Z,121.95
2023-05-06T12:53:13.462Z,115.66
2023-05-06T12:55:46.743Z,123.89
2023-05-06T12:58:24.873Z,122.73
2023-05-06T13:00:57.266Z,125.03
2023-05-06T13:03:38.221Z,126.40
2023-05-06T13:06:11.339Z,112.61
2023-05-06T13:08:43.963Z,118.46
2023-05-06T13:11:16.241Z,116.61
2023-05-06T13:13:51.258Z,110.51
2023-05-06T13:16:23.918Z,114.21
2023-05-06T13:18:56.202Z,106.86
2023-05-06T13:21:28.661Z,114.95
2023-05-06T13:24:00.908Z,103.08
2023-05-06T13:26:33.206Z,97.24
2023-05-06T13:29:08.055Z,97.24
2023-05-06T13:31:40.383Z,103.06
2023-05-06T13:34:12.963Z,99.20
2023-05-06T13:36:45.374Z,93.69
2023-05-06T13:39:17.551Z,93.67
2023-05-06T13:41:51.227Z,85.06
2023-05-06T13:44:26.502Z,77.36
2023-05-06T13:46:59.066Z,67.35
2023-05-06T13:49:31.307Z,54.74
2023-05-06T13:52:04.758Z,55.49
2023-05-06T13:54:38.774Z,65.24
2023-05-06T13:57:10.958Z,69.55
2023-05-06T13:59:45.867Z,48.69
2023-05-06T14:02:18.659Z,42.62
2023-05-06T14:05:03.307Z,38.33
2023-05-06T14:07:35.586Z,36.05
2023-05-06T14:10:08.288Z,37.47
2023-05-06T14:12:40.815Z,33.40
2023-05-06T14:15:17.182Z,35.23
2023-05-06T14:17:49.395Z,35.29
2023-05-06T14:20:21.624Z,31.80
2023-05-06T14:22:53.867Z,32.89
2023-05-06T14:25:28.159Z,30.32
2023-05-06T14:28:00.441Z,27.24
2023-05-06T14:30:35.878Z,26.00
2023-05-06T14:33:08.414Z,24.68
2023-05-06T14:35:46.155Z,24.39
2023-05-06T14:38:18.405Z,25.99
2023-05-06T14:40:50.594Z,24.73
2023-05-06T14:43:23.898Z,25.90
2023-05-06T14:45:58.963Z,26.25
2023-05-06T14:48:32.191Z,27.66
2023-05-06T14:51:05.462Z,25.50
2023-05-06T14:53:37.627Z,25.64
2023-05-06T14:56:13.492Z,26.54
2023-05-06T14:58:45.704Z,28.44
2023-05-06T15:01:20.523Z,27.06
2023-05-06T15:03:53.552Z,28.81
2023-05-06T15:06:26.056Z,28.43
2023-05-06T15:08:58.280Z,30.16
2023-05-06T15:11:30.572Z,30.55
2023-05-06T15:14:02.788Z,31.13
2023-05-06T15:16:37.690Z,29.64
2023-05-06T15:19:10.202Z,27.00
2023-05-06T15:21:42.522Z,29.72
2023-05-06T15:24:14.866Z,33.11
2023-05-06T15:26:47.093Z,34.99
2023-05-06T15:29:20.584Z,35.94
2023-05-06T15:31:57.979Z,35.46
2023-05-06T15:34:30.217Z,31.99
2023-05-06T15:37:03.516Z,32.25
2023-05-06T15:39:40.472Z,30.46
2023-05-06T15:42:13.748Z,31.76
2023-05-06T15:44:46.067Z,29.96
2023-05-06T15:47:20.833Z,26.86
2023-05-06T15:49:57.234Z,27.36
2023-05-06T15:52:29.433Z,25.67
2023-05-06T15:55:02.361Z,26.84
2023-05-06T15:57:34.707Z,28.26
2023-05-06T16:00:08.365Z,29.82
2023-05-06T16:02:43.368Z,33.14
2023-05-06T16:05:15.984Z,33.46
2023-05-06T16:07:48.292Z,34.12
2023-05-06T16:10:20.898Z,32.59
2023-05-06T16:12:53.129Z,31.27
2023-05-06T16:15:25.706Z,31.46
2023-05-06T16:18:00.599Z,32.99
2023-05-06T16:20:33.059Z,34.08
2023-05-06T16:23:05.642Z,32.37
2023-05-06T16:25:38.398Z,32.85
2023-05-06T16:28:11.627Z,27.02
2023-05-06T16:30:45.073Z,26.90
2023-05-06T16:33:29.614Z,31.23
2023-05-06T16:36:05.893Z,29.64
2023-05-06T16:38:38.167Z,31.49
2023-05-06T16:41:13.261Z,31.81
2023-05-06T16:43:49.744Z,32.61
2023-05-06T16:46:25.042Z,30.20
2023-05-06T16:49:01.213Z,30.19
2023-05-06T16:51:33.918Z,31.99
2023-05-06T16:54:06.327Z,31.64
2023-05-06T16:56:50.772Z,33.96
2023-05-06T16:59:26.201Z,31.29
2023-05-06T17:02:01.539Z,31.25
2023-05-06T17:04:36.779Z,33.71
2023-05-06T17:07:13.774Z,30.18
2023-05-06T17:09:51.242Z,30.21
2023-05-06T17:12:23.977Z,26.91
2023-05-06T17:14:56.316Z,25.69
2023-05-06T17:17:29.117Z,25.89
2023-05-06T17:20:05.459Z,24.15
2023-05-06T17:22:42.849Z,23.45
2023-05-06T17:25:16.435Z,24.11
2023-05-06T17:27:49.222Z,25.20
2023-05-06T17:30:23.527Z,23.31
2023-05-06T17:32:59.006Z,23.17
2023-05-06T17:35:34.024Z,24.58
2023-05-06T17:38:06.181Z,25.79
2023-05-06T17:40:38.420Z,24.37
2023-05-06T17:43:10.736Z,25.27
2023-05-06T17:45:44.714Z,25.29
2023-05-06T17:48:16.914Z,27.99
2023-05-06T17:50:51.663Z,26.59
2023-05-06T17:53:26.184Z,24.96
2023-05-06T17:55:58.637Z,27.61
2023-05-06T17:58:30.936Z,28.08
2023-05-06T18:01:03.261Z,29.59
2023-05-06T18:03:35.578Z,30.85
2023-05-06T18:06:10.932Z,34.86
2023-05-06T18:08:44.548Z,36.74
2023-05-06T18:11:16.803Z,37.84
2023-05-06T18:13:49.090Z,40.24
2023-05-06T18:16:21.584Z,39.75
2023-05-06T18:18:53.847Z,44.78
2023-05-06T18:21:28.683Z,52.24
2023-05-06T18:24:10.308Z,56.58
2023-05-06T18:26:48.090Z,56.07
2023-05-06T18:29:20.295Z,61.19
2023-05-06T18:31:52.552Z,60.59
2023-05-06T18:34:24.723Z,63.75
2023-05-06T18:37:00.202Z,68.54
2023-05-06T18:39:32.442Z,68.85
2023-05-06T18:42:04.605Z,73.19
2023-05-06T18:44:37.009Z,70.25
2023-05-06T18:47:09.660Z,75.11
2023-05-06T18:49:41.859Z,78.91
2023-05-06T18:52:17.903Z,78.36
2023-05-06T18:54:51.476Z,80.58
2023-05-06T18:57:24.156Z,82.32
2023-05-06T18:59:56.546Z,85.33
2023-05-06T19:02:28.849Z,84.07
2023-05-06T19:05:01.504Z,87.10
2023-05-06T19:07:36.312Z,89.87
2023-05-06T19:10:09.298Z,92.36
2023-05-06T19:12:41.784Z,92.11
2023-05-06T19:15:15.177Z,94.71
2023-05-06T19:17:47.528Z,91.81
2023-05-06T19:20:20.038Z,93.41
2023-05-06T19:22:54.900Z,95.63
2023-05-06T19:25:27.356Z,96.14
2023-05-06T19:27:59.572Z,94.69
2023-05-06T19:30:36.230Z,94.21
2023-05-06T19:33:08.773Z,96.36
2023-05-06T19:35:42.026Z,95.79
2023-05-06T19:38:16.830Z,101.66
2023-05-06T19:40:49.069Z,102.21
2023-05-06T19:43:21.419Z,102.04
2023-05-06T19:45:54.000Z,103.17
2023-05-06T19:48:26.387Z,104.53
2023-05-06T19:50:58.652Z,105.95
2023-05-06T19:53:33.531Z,101.04
2023-05-06T19:56:13.416Z,100.90
2023-05-06T19:58:46.057Z,99.91
2023-05-06T20:01:22.654Z,102.19
2023-05-06T20:03:55.312Z,103.46
2023-05-06T20:06:29.660Z,107.74
2023-05-06T20:09:05.054Z,108.44
2023-05-06T20:11:37.375Z,109.15
2023-05-06T20:14:09.737Z,110.46
2023-05-06T20:16:42.085Z,111.66
2023-05-06T20:19:14.444Z,114.17
2023-05-06T20:21:46.745Z,119.78
2023-05-06T20:24:24.102Z,117.95
2023-05-06T20:26:58.178Z,124.75
2023-05-06T20:29:30.987Z,126.64
2023-05-06T20:32:03.452Z,133.56
2023-05-06T20:34:35.852Z,134.71
2023-05-06T20:37:08.312Z,130.04
2023-05-06T20:39:43.883Z,131.22
2023-05-06T20:42:16.127Z,126.70
2023-05-06T20:44:48.387Z,129.86
2023-05-06T20:47:20.700Z,138.64
2023-05-06T20:49:53.050Z,140.05
2023-05-06T20:52:25.823Z,138.81
2023-05-06T20:55:01.203Z,139.97
2023-05-06T20:57:33.484Z,133.71
2023-05-06T21:00:08.090Z,129.95
2023-05-06T21:02:41.864Z,123.31
2023-05-06T21:05:14.940Z,124.40
2023-05-06T21:07:47.326Z,122.69
2023-05-06T21:10:22.453Z,116.39
2023-05-06T21:12:55.292Z,118.13
2023-05-06T21:15:27.748Z,116.56
2023-05-06T21:18:00.075Z,111.10
2023-05-06T21:20:32.536Z,114.36
2023-05-06T21:23:05.219Z,112.59
2023-05-06T21:25:40.353Z,109.77
2023-05-06T21:28:13.841Z,116.16
2023-05-06T21:30:46.186Z,110.91
2023-05-06T21:33:19.637Z,112.75
2023-05-06T21:35:51.973Z,112.59
2023-05-06T21:38:24.257Z,114.82
2023-05-06T21:40:59.150Z,114.71
2023-05-06T21:43:33.343Z,109.17
2023-05-06T21:46:07.359Z,109.04
2023-05-06T21:48:39.632Z,108.15
2023-05-06T21:51:11.862Z,107.94
2023-05-06T21:53:44.091Z,110.69
2023-05-06T21:56:19.059Z,110.26
2023-05-06T21:58:51.388Z,106.09
2023-05-06T22:01:23.635Z,109.92
2023-05-06T22:03:56.516Z,109.98
2023-05-06T22:06:29.278Z,110.35
2023-05-06T22:09:01.564Z,106.55
2023-05-06T22:11:36.341Z,105.08
2023-05-06T22:14:08.769Z,105.31
2023-05-06T22:16:41.692Z,107.69
2023-05-06T22:19:14.299Z,112.05
2023-05-06T22:21:46.606Z,106.03
2023-05-06T22:24:18.840Z,107.58
2023-05-06T22:26:53.714Z,105.34
2023-05-06T22:29:26.030Z,108.68
2023-05-06T22:31:58.362Z,110.29
2023-05-06T22:34:30.678Z,107.32
2023-05-06T22:37:03.198Z,114.29
2023-05-06T22:39:35.474Z,111.89
2023-05-06T22:42:10.677Z,110.64
2023-05-06T22:44:42.897Z,111.76
2023-05-06T22:47:16.575Z,112.69
2023-05-06T22:49:48.835Z,110.61
2023-05-06T22:52:21.079Z,114.16
2023-05-06T22:54:53.366Z,114.26
2023-05-06T22:57:28.247Z,112.17
2023-05-06T23:00:00.520Z,106.04
2023-05-06T23:02:33.126Z,114.19
2023-05-06T23:05:05.495Z,119.70
2023-05-06T23:07:37.695Z,118.31
2023-05-06T23:10:11.653Z,122.60
2023-05-06T23:12:46.515Z,119.91
2023-05-06T23:15:18.835Z,124.60
2023-05-06T23:17:51.062Z,122.16
2023-05-06T23:20:23.360Z,122.23
2023-05-06T23:22:55.717Z,118.21
2023-05-06T23:25:28.201Z,112.24
2023-05-06T23:28:03.021Z,118.24
2023-05-06T23:30:35.687Z,116.35
2023-05-06T23:33:08.019Z,112.70
2023-05-06T23:35:40.302Z,109.41
2023-05-06T23:38:12.579Z,107.14
2023-05-06T23:40:44.956Z,105.26
2023-05-06T23:43:19.790Z,108.55
2023-05-06T23:45:52.216Z,108.36
2023-05-06T23:48:24.362Z,110.28
2023-05-06T23:50:56.632Z,116.11
2023-05-06T23:53:28.888Z,111.31
2023-05-06T23:56:01.416Z,111.86
2023-05-06T23:58:36.204Z,111.91
